sensor_id;sensor_type;location;lat;lon;timestamp;pressure;altitude;pressure_sealevel;temperature;humidity
4617;BME280;2321;42.704;23.384;2023-08-07T00:02:05;94897.97;;;18.15;100.00
4617;BME280;2321;42.704;23.384;2023-08-07T00:04:32;94895.50;;;18.14;100.00
4617;BME280;2321;42.704;23.384;2023-08-07T00:06:59;94896.13;;;18.21;100.00
4617;BME280;2321;42.704;23.384;2023-08-07T00:09:27;94889.06;;;18.15;100.00
4617;BME280;2321;42.704;23.384;2023-08-07T00:11:54;94892.31;;;18.17;100.00
4617;BME280;2321;42.704;23.384;2023-08-07T00:14:21;94897.06;;;18.10;100.00
4617;BME280;2321;42.704;23.384;2023-08-07T00:16:47;94897.72;;;17.94;100.00
4617;BME280;2321;42.704;23.384;2023-08-07T00:19:14;94905.09;;;17.82;100.00
4617;BME280;2321;42.704;23.384;2023-08-07T00:21:41;94901.53;;;17.76;100.00
4617;BME280;2321;42.704;23.384;2023-08-07T00:24:08;94908.06;;;17.80;100.00
4617;BME280;2321;42.704;23.384;2023-08-07T00:26:36;94906.50;;;17.84;100.00
4617;BME280;2321;42.704;23.384;2023-08-07T00:29:03;94899.97;;;17.80;100.00
4617;BME280;2321;42.704;23.384;2023-08-07T00:31:30;94895.09;;;17.77;100.00
4617;BME280;2321;42.704;23.384;2023-08-07T00:33:57;94904.56;;;17.80;100.00
4617;BME280;2321;42.704;23.384;2023-08-07T00:36:25;94900.03;;;17.85;100.00
4617;BME280;2321;42.704;23.384;2023-08-07T00:38:54;94906.78;;;17.88;100.00
4617;BME280;2321;42.704;23.384;2023-08-07T00:41:21;94910.31;;;17.89;100.00
4617;BME280;2321;42.704;23.384;2023-08-07T00:43:49;94906.56;;;17.90;100.00
4617;BME280;2321;42.704;23.384;2023-08-07T00:46:16;94904.88;;;17.83;100.00
4617;BME280;2321;42.704;23.384;2023-08-07T00:48:43;94912.88;;;17.78;100.00
4617;BME280;2321;42.704;23.384;2023-08-07T00:51:10;94912.25;;;17.71;100.00
4617;BME280;2321;42.704;23.384;2023-08-07T00:53:38;94900.78;;;17.58;100.00
4617;BME280;2321;42.704;23.384;2023-08-07T00:56:06;94920.81;;;17.68;100.00
4617;BME280;2321;42.704;23.384;2023-08-07T00:58:33;94918.63;;;17.64;100.00
4617;BME280;2321;42.704;23.384;2023-08-07T01:01:02;94928.56;;;17.64;100.00
4617;BME280;2321;42.704;23.384;2023-08-07T01:03:29;94934.28;;;17.68;100.00
4617;BME280;2321;42.704;23.384;2023-08-07T01:05:56;94942.41;;;17.73;100.00
4617;BME280;2321;42.704;23.384;2023-08-07T01:08:23;94940.88;;;17.77;100.00
4617;BME280;2321;42.704;23.384;2023-08-07T01:11:11;94948.69;;;17.79;100.00
4617;BME280;2321;42.704;23.384;2023-08-07T01:13:48;94942.31;;;17.85;100.00
4617;BME280;2321;42.704;23.384;2023-08-07T01:16:23;94942.88;;;17.87;100.00
4617;BME280;2321;42.704;23.384;2023-08-07T01:18:53;94952.78;;;17.81;100.00
4617;BME280;2321;42.704;23.384;2023-08-07T01:21:21;94953.06;;;17.85;100.00
4617;BME280;2321;42.704;23.384;2023-08-07T01:23:49;94952.34;;;17.90;100.00
4617;BME280;2321;42.704;23.384;2023-08-07T01:26:19;94952.94;;;17.97;100.00
4617;BME280;2321;42.704;23.384;2023-08-07T01:28:50;94955.41;;;17.99;100.00
4617;BME280;2321;42.704;23.384;2023-08-07T01:31:22;94950.06;;;18.04;100.00
4617;BME280;2321;42.704;23.384;2023-08-07T01:33:56;94948.25;;;18.10;100.00
4617;BME280;2321;42.704;23.384;2023-08-07T01:36:27;94949.94;;;18.16;100.00
4617;BME280;2321;42.704;23.384;2023-08-07T01:38:57;94942.69;;;18.16;100.00
4617;BME280;2321;42.704;23.384;2023-08-07T01:41:26;94945.69;;;18.20;100.00
4617;BME280;2321;42.704;23.384;2023-08-07T01:43:54;94940.31;;;18.20;100.00
4617;BME280;2321;42.704;23.384;2023-08-07T01:46:21;94942.25;;;18.25;100.00
4617;BME280;2321;42.704;23.384;2023-08-07T01:48:47;94930.69;;;18.24;100.00
4617;BME280;2321;42.704;23.384;2023-08-07T01:51:14;94943.00;;;18.20;100.00
4617;BME280;2321;42.704;23.384;2023-08-07T01:53:41;94951.53;;;18.12;100.00
4617;BME280;2321;42.704;23.384;2023-08-07T01:56:09;94947.97;;;18.06;100.00
4617;BME280;2321;42.704;23.384;2023-08-07T01:58:36;94946.88;;;18.07;100.00
4617;BME280;2321;42.704;23.384;2023-08-07T02:01:03;94955.13;;;18.00;100.00
4617;BME280;2321;42.704;23.384;2023-08-07T02:03:30;94958.41;;;18.02;100.00
4617;BME280;2321;42.704;23.384;2023-08-07T02:05:57;94956.84;;;18.06;100.00
4617;BME280;2321;42.704;23.384;2023-08-07T02:08:24;94961.16;;;18.07;100.00
4617;BME280;2321;42.704;23.384;2023-08-07T02:10:51;94968.19;;;18.08;100.00
4617;BME280;2321;42.704;23.384;2023-08-07T02:13:19;94971.06;;;18.02;100.00
4617;BME280;2321;42.704;23.384;2023-08-07T02:15:46;94965.34;;;17.98;100.00
4617;BME280;2321;42.704;23.384;2023-08-07T02:18:13;94976.31;;;17.91;100.00
4617;BME280;2321;42.704;23.384;2023-08-07T02:20:39;94970.69;;;17.93;100.00
4617;BME280;2321;42.704;23.384;2023-08-07T02:23:06;94977.00;;;17.81;100.00
4617;BME280;2321;42.704;23.384;2023-08-07T02:25:34;94964.94;;;17.67;100.00
4617;BME280;2321;42.704;23.384;2023-08-07T02:28:01;94980.97;;;17.56;100.00
4617;BME280;2321;42.704;23.384;2023-08-07T02:30:30;94976.72;;;17.60;100.00
4617;BME280;2321;42.704;23.384;2023-08-07T02:32:57;94974.50;;;17.57;100.00
4617;BME280;2321;42.704;23.384;2023-08-07T02:35:24;94982.44;;;17.47;100.00
4617;BME280;2321;42.704;23.384;2023-08-07T02:37:51;94982.28;;;17.36;100.00
4617;BME280;2321;42.704;23.384;2023-08-07T02:40:18;94986.44;;;17.27;100.00
4617;BME280;2321;42.704;23.384;2023-08-07T02:42:45;94979.34;;;17.20;100.00
4617;BME280;2321;42.704;23.384;2023-08-07T02:45:11;94980.31;;;17.14;100.00
4617;BME280;2321;42.704;23.384;2023-08-07T02:47:40;94973.78;;;17.10;100.00
4617;BME280;2321;42.704;23.384;2023-08-07T02:50:07;94979.81;;;17.00;100.00
4617;BME280;2321;42.704;23.384;2023-08-07T02:52:34;94983.06;;;16.85;100.00
4617;BME280;2321;42.704;23.384;2023-08-07T02:55:01;94982.56;;;16.71;100.00
4617;BME280;2321;42.704;23.384;2023-08-07T02:57:28;94994.38;;;16.70;100.00
4617;BME280;2321;42.704;23.384;2023-08-07T02:59:54;94987.75;;;16.60;100.00
4617;BME280;2321;42.704;23.384;2023-08-07T03:02:21;94991.25;;;16.61;100.00
4617;BME280;2321;42.704;23.384;2023-08-07T03:04:50;94998.16;;;16.57;100.00
4617;BME280;2321;42.704;23.384;2023-08-07T03:07:16;94992.25;;;16.42;100.00
4617;BME280;2321;42.704;23.384;2023-08-07T03:09:45;94986.53;;;16.39;100.00
4617;BME280;2321;42.704;23.384;2023-08-07T03:12:12;94992.34;;;16.48;100.00
4617;BME280;2321;42.704;23.384;2023-08-07T03:14:39;94990.75;;;16.47;100.00
4617;BME280;2321;42.704;23.384;2023-08-07T03:17:06;94995.28;;;16.46;100.00
4617;BME280;2321;42.704;23.384;2023-08-07T03:19:33;95006.59;;;16.48;100.00
4617;BME280;2321;42.704;23.384;2023-08-07T03:22:02;95005.09;;;16.52;100.00
4617;BME280;2321;42.704;23.384;2023-08-07T03:24:29;95003.19;;;16.53;100.00
4617;BME280;2321;42.704;23.384;2023-08-07T03:26:55;95010.53;;;16.58;100.00
4617;BME280;2321;42.704;23.384;2023-08-07T03:29:22;95011.09;;;16.60;100.00
4617;BME280;2321;42.704;23.384;2023-08-07T03:31:49;95016.25;;;16.61;100.00
4617;BME280;2321;42.704;23.384;2023-08-07T03:34:16;95007.47;;;16.66;100.00
4617;BME280;2321;42.704;23.384;2023-08-07T03:36:44;95015.53;;;16.66;100.00
4617;BME280;2321;42.704;23.384;2023-08-07T03:39:12;95023.59;;;16.66;100.00
4617;BME280;2321;42.704;23.384;2023-08-07T03:41:39;95036.81;;;16.68;100.00
4617;BME280;2321;42.704;23.384;2023-08-07T03:44:06;95036.31;;;16.71;100.00
4617;BME280;2321;42.704;23.384;2023-08-07T03:46:33;95043.56;;;16.70;100.00
4617;BME280;2321;42.704;23.384;2023-08-07T03:49:00;95044.03;;;16.67;100.00
4617;BME280;2321;42.704;23.384;2023-08-07T03:51:27;95039.72;;;16.66;100.00
4617;BME280;2321;42.704;23.384;2023-08-07T03:53:55;95048.38;;;16.68;100.00
4617;BME280;2321;42.704;23.384;2023-08-07T03:56:23;95063.50;;;16.74;100.00
4617;BME280;2321;42.704;23.384;2023-08-07T03:58:50;95043.50;;;16.82;100.00
4617;BME280;2321;42.704;23.384;2023-08-07T04:01:17;95042.06;;;16.92;100.00
4617;BME280;2321;42.704;23.384;2023-08-07T04:03:46;95049.41;;;16.96;100.00
4617;BME280;2321;42.704;23.384;2023-08-07T04:06:13;95051.72;;;17.05;100.00
4617;BME280;2321;42.704;23.384;2023-08-07T04:08:41;95059.50;;;17.18;100.00
4617;BME280;2321;42.704;23.384;2023-08-07T04:11:08;95060.88;;;17.21;100.00
4617;BME280;2321;42.704;23.384;2023-08-07T04:13:37;95066.66;;;17.30;100.00
4617;BME280;2321;42.704;23.384;2023-08-07T04:16:04;95069.69;;;17.34;100.00
4617;BME280;2321;42.704;23.384;2023-08-07T04:18:31;95072.72;;;17.37;100.00
4617;BME280;2321;42.704;23.384;2023-08-07T04:20:58;95072.22;;;17.40;100.00
4617;BME280;2321;42.704;23.384;2023-08-07T04:23:26;95083.75;;;17.53;100.00
4617;BME280;2321;42.704;23.384;2023-08-07T04:25:53;95078.91;;;17.55;100.00
4617;BME280;2321;42.704;23.384;2023-08-07T04:28:20;95084.13;;;17.62;100.00
4617;BME280;2321;42.704;23.384;2023-08-07T04:30:50;95090.19;;;17.69;100.00
4617;BME280;2321;42.704;23.384;2023-08-07T04:33:18;95091.09;;;17.75;100.00
4617;BME280;2321;42.704;23.384;2023-08-07T04:35:44;95086.50;;;17.75;100.00
4617;BME280;2321;42.704;23.384;2023-08-07T04:38:12;95083.78;;;17.75;100.00
4617;BME280;2321;42.704;23.384;2023-08-07T04:40:43;95084.63;;;17.76;100.00
4617;BME280;2321;42.704;23.384;2023-08-07T04:43:10;95084.53;;;17.71;100.00
4617;BME280;2321;42.704;23.384;2023-08-07T04:45:37;95093.13;;;17.68;100.00
4617;BME280;2321;42.704;23.384;2023-08-07T04:48:06;95087.72;;;17.68;100.00
4617;BME280;2321;42.704;23.384;2023-08-07T04:50:33;95087.81;;;17.73;100.00
4617;BME280;2321;42.704;23.384;2023-08-07T04:53:00;95089.69;;;17.72;100.00
4617;BME280;2321;42.704;23.384;2023-08-07T04:55:27;95092.06;;;17.69;100.00
4617;BME280;2321;42.704;23.384;2023-08-07T04:57:54;95084.06;;;17.74;100.00
4617;BME280;2321;42.704;23.384;2023-08-07T05:00:22;95090.41;;;17.68;100.00
4617;BME280;2321;42.704;23.384;2023-08-07T05:02:49;95082.91;;;17.70;100.00
4617;BME280;2321;42.704;23.384;2023-08-07T05:05:17;95071.91;;;17.71;100.00
4617;BME280;2321;42.704;23.384;2023-08-07T05:07:46;95079.22;;;17.76;100.00
4617;BME280;2321;42.704;23.384;2023-08-07T05:10:13;95072.25;;;17.75;100.00
4617;BME280;2321;42.704;23.384;2023-08-07T05:12:40;95072.31;;;17.80;100.00
4617;BME280;2321;42.704;23.384;2023-08-07T05:15:07;95072.63;;;17.84;100.00
4617;BME280;2321;42.704;23.384;2023-08-07T05:17:34;95067.97;;;17.79;100.00
4617;BME280;2321;42.704;23.384;2023-08-07T05:20:01;95066.97;;;17.85;100.00
4617;BME280;2321;42.704;23.384;2023-08-07T05:22:29;95072.47;;;17.91;100.00
4617;BME280;2321;42.704;23.384;2023-08-07T05:24:56;95070.81;;;17.90;100.00
4617;BME280;2321;42.704;23.384;2023-08-07T05:27:23;95068.25;;;18.00;100.00
4617;BME280;2321;42.704;23.384;2023-08-07T05:29:50;95066.97;;;18.03;100.00
4617;BME280;2321;42.704;23.384;2023-08-07T05:32:17;95068.97;;;18.13;100.00
4617;BME280;2321;42.704;23.384;2023-08-07T05:34:44;95074.75;;;18.22;100.00
4617;BME280;2321;42.704;23.384;2023-08-07T05:37:10;95071.09;;;18.28;100.00
4617;BME280;2321;42.704;23.384;2023-08-07T05:39:39;95069.34;;;18.39;100.00
4617;BME280;2321;42.704;23.384;2023-08-07T05:42:06;95058.13;;;18.47;100.00
4617;BME280;2321;42.704;23.384;2023-08-07T05:44:33;95071.75;;;18.58;100.00
4617;BME280;2321;42.704;23.384;2023-08-07T05:47:00;95072.03;;;18.61;100.00
4617;BME280;2321;42.704;23.384;2023-08-07T05:49:27;95079.31;;;18.61;100.00
4617;BME280;2321;42.704;23.384;2023-08-07T05:51:53;95080.63;;;18.58;100.00
4617;BME280;2321;42.704;23.384;2023-08-07T05:54:20;95074.16;;;18.59;100.00
4617;BME280;2321;42.704;23.384;2023-08-07T05:56:49;95076.63;;;18.61;100.00
4617;BME280;2321;42.704;23.384;2023-08-07T05:59:16;95086.66;;;18.66;100.00
4617;BME280;2321;42.704;23.384;2023-08-07T06:01:42;95078.31;;;18.67;100.00
4617;BME280;2321;42.704;23.384;2023-08-07T06:04:09;95082.72;;;18.73;100.00
4617;BME280;2321;42.704;23.384;2023-08-07T06:06:36;95085.44;;;18.79;100.00
4617;BME280;2321;42.704;23.384;2023-08-07T06:09:06;95081.75;;;18.85;100.00
4617;BME280;2321;42.704;23.384;2023-08-07T06:11:33;95081.56;;;18.92;100.00
4617;BME280;2321;42.704;23.384;2023-08-07T06:14:01;95078.41;;;19.00;100.00
4617;BME280;2321;42.704;23.384;2023-08-07T06:16:28;95081.44;;;19.09;100.00
4617;BME280;2321;42.704;23.384;2023-08-07T06:18:55;95081.63;;;19.25;100.00
4617;BME280;2321;42.704;23.384;2023-08-07T06:21:22;95075.72;;;19.28;100.00
4617;BME280;2321;42.704;23.384;2023-08-07T06:23:49;95068.78;;;19.37;100.00
4617;BME280;2321;42.704;23.384;2023-08-07T06:26:16;95069.13;;;19.46;100.00
4617;BME280;2321;42.704;23.384;2023-08-07T06:28:43;95069.97;;;19.52;100.00
4617;BME280;2321;42.704;23.384;2023-08-07T06:31:12;95065.19;;;19.59;99.87
4617;BME280;2321;42.704;23.384;2023-08-07T06:33:39;95066.59;;;19.67;99.92
4617;BME280;2321;42.704;23.384;2023-08-07T06:36:06;95069.91;;;19.80;97.36
4617;BME280;2321;42.704;23.384;2023-08-07T06:38:33;95063.72;;;19.85;95.15
4617;BME280;2321;42.704;23.384;2023-08-07T06:41:00;95061.59;;;19.87;95.20
4617;BME280;2321;42.704;23.384;2023-08-07T06:43:27;95064.31;;;19.92;92.71
4617;BME280;2321;42.704;23.384;2023-08-07T06:45:55;95074.09;;;19.98;92.68
4617;BME280;2321;42.704;23.384;2023-08-07T06:48:23;95077.88;;;20.02;90.88
4617;BME280;2321;42.704;23.384;2023-08-07T06:50:51;95084.69;;;20.10;88.76
4617;BME280;2321;42.704;23.384;2023-08-07T06:53:18;95086.63;;;20.15;85.47
4617;BME280;2321;42.704;23.384;2023-08-07T06:55:45;95081.81;;;20.22;88.78
4617;BME280;2321;42.704;23.384;2023-08-07T06:58:12;95078.84;;;20.24;79.78
4617;BME280;2321;42.704;23.384;2023-08-07T07:00:39;95088.34;;;20.27;81.21
4617;BME280;2321;42.704;23.384;2023-08-07T07:03:06;95081.59;;;20.34;83.44
4617;BME280;2321;42.704;23.384;2023-08-07T07:05:36;95089.72;;;20.34;79.83
4617;BME280;2321;42.704;23.384;2023-08-07T07:08:04;95087.84;;;20.40;82.64
4617;BME280;2321;42.704;23.384;2023-08-07T07:10:31;95087.63;;;20.47;82.98
4617;BME280;2321;42.704;23.384;2023-08-07T07:12:58;95083.56;;;20.50;81.86
4617;BME280;2321;42.704;23.384;2023-08-07T07:15:25;95091.75;;;20.60;81.89
4617;BME280;2321;42.704;23.384;2023-08-07T07:17:52;95076.94;;;20.78;79.59
4617;BME280;2321;42.704;23.384;2023-08-07T07:20:19;95077.75;;;20.84;75.49
4617;BME280;2321;42.704;23.384;2023-08-07T07:22:47;95071.81;;;20.93;75.70
4617;BME280;2321;42.704;23.384;2023-08-07T07:25:14;95074.53;;;20.98;73.96
4617;BME280;2321;42.704;23.384;2023-08-07T07:27:41;95072.38;;;21.00;71.63
4617;BME280;2321;42.704;23.384;2023-08-07T07:30:10;95079.16;;;21.03;67.75
4617;BME280;2321;42.704;23.384;2023-08-07T07:32:37;95071.34;;;21.11;66.55
4617;BME280;2321;42.704;23.384;2023-08-07T07:35:05;95060.53;;;21.17;70.69
4617;BME280;2321;42.704;23.384;2023-08-07T07:37:31;95060.00;;;21.30;69.88
4617;BME280;2321;42.704;23.384;2023-08-07T07:40:00;95067.03;;;21.42;68.32
4617;BME280;2321;42.704;23.384;2023-08-07T07:42:27;95075.19;;;21.52;67.40
4617;BME280;2321;42.704;23.384;2023-08-07T07:44:53;95074.09;;;21.59;66.22
4617;BME280;2321;42.704;23.384;2023-08-07T07:47:20;95077.06;;;21.62;66.49
4617;BME280;2321;42.704;23.384;2023-08-07T07:49:47;95076.81;;;21.64;65.27
4617;BME280;2321;42.704;23.384;2023-08-07T07:52:15;95063.00;;;21.71;65.63
4617;BME280;2321;42.704;23.384;2023-08-07T07:54:42;95065.69;;;21.92;69.03
4617;BME280;2321;42.704;23.384;2023-08-07T07:57:10;95074.91;;;22.01;64.64
4617;BME280;2321;42.704;23.384;2023-08-07T07:59:37;95064.34;;;21.94;63.11
4617;BME280;2321;42.704;23.384;2023-08-07T08:02:04;95075.97;;;22.00;60.85
4617;BME280;2321;42.704;23.384;2023-08-07T08:04:31;95080.03;;;22.03;56.42
4617;BME280;2321;42.704;23.384;2023-08-07T08:06:58;95068.38;;;22.02;57.61
4617;BME280;2321;42.704;23.384;2023-08-07T08:09:25;95072.69;;;22.08;55.28
4617;BME280;2321;42.704;23.384;2023-08-07T08:11:53;95061.06;;;22.08;54.61
4617;BME280;2321;42.704;23.384;2023-08-07T08:14:21;95056.13;;;22.20;55.71
4617;BME280;2321;42.704;23.384;2023-08-07T08:16:48;95065.88;;;22.27;55.14
4617;BME280;2321;42.704;23.384;2023-08-07T08:19:15;95070.22;;;22.38;56.54
4617;BME280;2321;42.704;23.384;2023-08-07T08:21:42;95055.50;;;22.50;55.90
4617;BME280;2321;42.704;23.384;2023-08-07T08:24:09;95061.19;;;22.53;54.99
4617;BME280;2321;42.704;23.384;2023-08-07T08:26:37;95051.94;;;22.55;55.18
4617;BME280;2321;42.704;23.384;2023-08-07T08:29:05;95053.28;;;22.62;54.68
4617;BME280;2321;42.704;23.384;2023-08-07T08:31:34;95049.72;;;22.78;50.84
4617;BME280;2321;42.704;23.384;2023-08-07T08:34:01;95056.44;;;22.91;49.43
4617;BME280;2321;42.704;23.384;2023-08-07T08:36:29;95049.91;;;22.92;50.22
4617;BME280;2321;42.704;23.384;2023-08-07T08:38:56;95047.97;;;22.98;51.37
4617;BME280;2321;42.704;23.384;2023-08-07T08:41:23;95041.97;;;23.06;49.40
4617;BME280;2321;42.704;23.384;2023-08-07T08:43:51;95047.41;;;23.06;49.50
4617;BME280;2321;42.704;23.384;2023-08-07T08:46:19;95039.47;;;23.10;50.97
4617;BME280;2321;42.704;23.384;2023-08-07T08:48:51;95040.25;;;23.15;50.15
4617;BME280;2321;42.704;23.384;2023-08-07T08:51:19;95038.81;;;23.28;47.44
4617;BME280;2321;42.704;23.384;2023-08-07T08:53:47;95046.06;;;23.38;46.73
4617;BME280;2321;42.704;23.384;2023-08-07T08:56:15;95035.72;;;23.40;47.19
4617;BME280;2321;42.704;23.384;2023-08-07T08:58:43;95035.94;;;23.55;46.93
4617;BME280;2321;42.704;23.384;2023-08-07T09:01:11;95030.44;;;23.60;48.17
4617;BME280;2321;42.704;23.384;2023-08-07T09:03:39;95027.16;;;23.63;47.46
4617;BME280;2321;42.704;23.384;2023-08-07T09:06:08;95019.78;;;23.69;47.79
4617;BME280;2321;42.704;23.384;2023-08-07T09:08:36;95020.78;;;23.78;47.22
4617;BME280;2321;42.704;23.384;2023-08-07T09:11:05;95027.38;;;23.97;46.84
4617;BME280;2321;42.704;23.384;2023-08-07T09:13:33;95036.47;;;24.11;46.54
4617;BME280;2321;42.704;23.384;2023-08-07T09:16:03;95031.56;;;24.13;46.89
4617;BME280;2321;42.704;23.384;2023-08-07T09:18:31;95025.78;;;24.20;45.09
4617;BME280;2321;42.704;23.384;2023-08-07T09:20:58;95036.03;;;24.29;45.32
4617;BME280;2321;42.704;23.384;2023-08-07T09:23:27;95035.78;;;24.25;44.93
4617;BME280;2321;42.704;23.384;2023-08-07T09:26:01;95021.44;;;24.19;45.27
4617;BME280;2321;42.704;23.384;2023-08-07T09:28:29;95022.53;;;24.18;44.78
4617;BME280;2321;42.704;23.384;2023-08-07T09:30:56;95013.28;;;24.19;45.77
4617;BME280;2321;42.704;23.384;2023-08-07T09:33:25;95002.63;;;24.23;44.88
4617;BME280;2321;42.704;23.384;2023-08-07T09:35:53;95006.34;;;24.32;44.61
4617;BME280;2321;42.704;23.384;2023-08-07T09:38:23;95006.69;;;24.50;45.15
4617;BME280;2321;42.704;23.384;2023-08-07T09:40:51;95005.47;;;24.62;44.38
4617;BME280;2321;42.704;23.384;2023-08-07T09:43:21;94999.44;;;24.65;44.26
4617;BME280;2321;42.704;23.384;2023-08-07T09:45:49;95007.38;;;24.80;44.78
4617;BME280;2321;42.704;23.384;2023-08-07T09:48:23;95003.31;;;24.97;44.08
4617;BME280;2321;42.704;23.384;2023-08-07T09:50:51;95008.94;;;25.06;44.75
4617;BME280;2321;42.704;23.384;2023-08-07T09:53:18;94998.78;;;25.12;43.92
4617;BME280;2321;42.704;23.384;2023-08-07T09:55:53;95002.31;;;25.12;43.68
4617;BME280;2321;42.704;23.384;2023-08-07T09:58:21;95004.75;;;25.14;42.89
4617;BME280;2321;42.704;23.384;2023-08-07T10:00:48;94999.44;;;25.23;43.39
4617;BME280;2321;42.704;23.384;2023-08-07T10:03:16;94993.75;;;25.39;42.62
4617;BME280;2321;42.704;23.384;2023-08-07T10:05:44;94998.88;;;25.40;41.92
4617;BME280;2321;42.704;23.384;2023-08-07T10:08:12;94998.28;;;25.43;42.13
4617;BME280;2321;42.704;23.384;2023-08-07T10:10:39;95002.03;;;25.48;41.91
4617;BME280;2321;42.704;23.384;2023-08-07T10:13:08;94998.19;;;25.49;41.24
4617;BME280;2321;42.704;23.384;2023-08-07T10:15:35;95005.06;;;25.46;42.08
4617;BME280;2321;42.704;23.384;2023-08-07T10:18:03;94997.41;;;25.48;42.04
4617;BME280;2321;42.704;23.384;2023-08-07T10:20:30;94985.31;;;25.54;42.13
4617;BME280;2321;42.704;23.384;2023-08-07T10:23:00;94987.63;;;25.61;41.42
4617;BME280;2321;42.704;23.384;2023-08-07T10:25:29;94995.84;;;25.75;41.32
4617;BME280;2321;42.704;23.384;2023-08-07T10:27:58;94985.69;;;25.81;41.37
4617;BME280;2321;42.704;23.384;2023-08-07T10:30:27;94994.78;;;25.91;40.55
4617;BME280;2321;42.704;23.384;2023-08-07T10:32:57;94997.91;;;25.98;40.26
4617;BME280;2321;42.704;23.384;2023-08-07T10:35:25;95000.13;;;25.96;39.85
4617;BME280;2321;42.704;23.384;2023-08-07T10:37:52;94997.81;;;25.89;40.76
4617;BME280;2321;42.704;23.384;2023-08-07T10:40:20;94992.47;;;25.98;41.46
4617;BME280;2321;42.704;23.384;2023-08-07T10:42:58;94994.56;;;26.01;41.08
4617;BME280;2321;42.704;23.384;2023-08-07T10:45:28;94988.03;;;26.02;40.80
4617;BME280;2321;42.704;23.384;2023-08-07T10:48:05;94972.97;;;26.05;40.32
4617;BME280;2321;42.704;23.384;2023-08-07T10:50:34;94986.50;;;26.10;39.86
4617;BME280;2321;42.704;23.384;2023-08-07T10:53:02;94981.16;;;26.19;39.10
4617;BME280;2321;42.704;23.384;2023-08-07T10:55:43;94979.25;;;26.33;41.46
4617;BME280;2321;42.704;23.384;2023-08-07T10:58:21;94974.69;;;26.57;41.07
4617;BME280;2321;42.704;23.384;2023-08-07T11:00:51;94966.06;;;26.64;40.60
4617;BME280;2321;42.704;23.384;2023-08-07T11:03:26;94964.22;;;26.73;41.16
4617;BME280;2321;42.704;23.384;2023-08-07T11:05:53;94968.66;;;26.83;40.01
4617;BME280;2321;42.704;23.384;2023-08-07T11:08:22;94965.00;;;26.88;39.36
4617;BME280;2321;42.704;23.384;2023-08-07T11:10:51;94972.09;;;26.89;40.26
4617;BME280;2321;42.704;23.384;2023-08-07T11:13:17;94964.19;;;26.87;40.76
4617;BME280;2321;42.704;23.384;2023-08-07T11:15:46;94951.81;;;26.90;39.63
4617;BME280;2321;42.704;23.384;2023-08-07T11:18:14;94952.69;;;27.00;39.40
4617;BME280;2321;42.704;23.384;2023-08-07T11:20:42;94946.50;;;27.08;39.34
4617;BME280;2321;42.704;23.384;2023-08-07T11:23:09;94954.47;;;27.18;39.26
4617;BME280;2321;42.704;23.384;2023-08-07T11:25:36;94931.31;;;27.16;39.14
4617;BME280;2321;42.704;23.384;2023-08-07T11:28:03;94934.72;;;27.22;39.38
4617;BME280;2321;42.704;23.384;2023-08-07T11:30:30;94924.28;;;27.24;39.64
4617;BME280;2321;42.704;23.384;2023-08-07T11:32:57;94932.44;;;27.38;40.33
4617;BME280;2321;42.704;23.384;2023-08-07T11:35:26;94939.09;;;27.55;39.17
4617;BME280;2321;42.704;23.384;2023-08-07T11:37:52;94934.53;;;27.41;39.19
4617;BME280;2321;42.704;23.384;2023-08-07T11:40:20;94927.84;;;27.24;39.54
4617;BME280;2321;42.704;23.384;2023-08-07T11:42:47;94925.25;;;27.19;40.49
4617;BME280;2321;42.704;23.384;2023-08-07T11:45:13;94925.25;;;27.19;40.62
4617;BME280;2321;42.704;23.384;2023-08-07T11:47:41;94930.00;;;27.13;39.91
4617;BME280;2321;42.704;23.384;2023-08-07T11:50:09;94933.84;;;27.12;40.50
4617;BME280;2321;42.704;23.384;2023-08-07T11:52:38;94938.69;;;27.15;40.55
4617;BME280;2321;42.704;23.384;2023-08-07T11:55:06;94934.59;;;27.04;40.35
4617;BME280;2321;42.704;23.384;2023-08-07T11:57:38;94925.81;;;26.93;40.96
4617;BME280;2321;42.704;23.384;2023-08-07T12:00:07;94923.22;;;26.87;41.01
4617;BME280;2321;42.704;23.384;2023-08-07T12:02:41;94928.38;;;26.89;41.47
4617;BME280;2321;42.704;23.384;2023-08-07T12:05:08;94922.13;;;26.89;41.00
4617;BME280;2321;42.704;23.384;2023-08-07T12:07:38;94924.84;;;26.89;41.91
4617;BME280;2321;42.704;23.384;2023-08-07T12:10:07;94925.53;;;26.94;41.31
4617;BME280;2321;42.704;23.384;2023-08-07T12:12:36;94926.88;;;27.06;41.29
4617;BME280;2321;42.704;23.384;2023-08-07T12:15:03;94910.28;;;27.16;40.68
4617;BME280;2321;42.704;23.384;2023-08-07T12:17:32;94916.47;;;27.31;41.35
4617;BME280;2321;42.704;23.384;2023-08-07T12:19:58;94901.94;;;27.45;41.05
4617;BME280;2321;42.704;23.384;2023-08-07T12:22:27;94898.59;;;27.57;40.94
4617;BME280;2321;42.704;23.384;2023-08-07T12:24:56;94906.38;;;27.72;40.40
4617;BME280;2321;42.704;23.384;2023-08-07T12:27:23;94906.69;;;27.71;40.31
4617;BME280;2321;42.704;23.384;2023-08-07T12:29:51;94885.59;;;27.62;40.61
4617;BME280;2321;42.704;23.384;2023-08-07T12:32:18;94900.72;;;27.60;41.51
4617;BME280;2321;42.704;23.384;2023-08-07T12:34:45;94896.34;;;27.59;40.79
4617;BME280;2321;42.704;23.384;2023-08-07T12:37:11;94896.34;;;27.59;41.01
4617;BME280;2321;42.704;23.384;2023-08-07T12:39:39;94899.84;;;27.50;41.34
4617;BME280;2321;42.704;23.384;2023-08-07T12:42:07;94893.59;;;27.50;40.79
4617;BME280;2321;42.704;23.384;2023-08-07T12:44:34;94900.78;;;27.46;41.71
4617;BME280;2321;42.704;23.384;2023-08-07T12:47:01;94898.72;;;27.51;42.06
4617;BME280;2321;42.704;23.384;2023-08-07T12:49:28;94907.91;;;27.56;41.98
4617;BME280;2321;42.704;23.384;2023-08-07T12:51:55;94916.16;;;27.65;41.47
4617;BME280;2321;42.704;23.384;2023-08-07T12:54:23;94908.44;;;27.67;41.70
4617;BME280;2321;42.704;23.384;2023-08-07T12:56:50;94910.53;;;27.70;41.97
4617;BME280;2321;42.704;23.384;2023-08-07T12:59:18;94922.38;;;27.88;42.08
4617;BME280;2321;42.704;23.384;2023-08-07T13:01:45;94909.66;;;27.83;41.47
4617;BME280;2321;42.704;23.384;2023-08-07T13:04:12;94912.78;;;27.68;41.89
4617;BME280;2321;42.704;23.384;2023-08-07T13:06:40;94910.84;;;27.59;41.92
4617;BME280;2321;42.704;23.384;2023-08-07T13:09:07;94924.63;;;27.54;42.43